createdAt,value
2023-04-12T00:03:34.845Z,30.40
2023-04-12T00:08:36.555Z,25.60
2023-04-12T00:13:38.297Z,24.60
2023-04-12T00:18:39.779Z,22.90
2023-04-12T00:23:41.275Z,24.00
2023-04-12T00:28:45.201Z,22.10
2023-04-12T00:33:46.688Z,25.00
2023-04-12T00:38:48.275Z,29.00
2023-04-12T00:43:50.661Z,27.40
2023-04-12T00:48:52.305Z,28.70
2023-04-12T00:53:58.558Z,26.00
2023-04-12T00:59:02.063Z,24.50
2023-04-12T01:04:04.977Z,24.20
2023-04-12T01:09:13.907Z,20.20
2023-04-12T01:14:28.587Z,20.60
2023-04-12T01:19:35.929Z,20.90
2023-04-12T01:24:49.633Z,20.10
2023-04-12T01:29:51.728Z,17.90
2023-04-12T01:34:55.025Z,16.90
2023-04-12T01:39:56.754Z,14.40
2023-04-12T01:44:58.651Z,23.20
2023-04-12T01:50:31.562Z,16.40
2023-04-12T01:55:37.356Z,17.20
2023-04-12T02:00:39.231Z,15.50
2023-04-12T02:05:41.708Z,14.60
2023-04-12T02:10:43.757Z,15.40
2023-04-12T02:15:45.961Z,22.10
2023-04-12T02:20:47.456Z,12.50
2023-04-12T02:25:49.056Z,12.60
2023-04-12T02:30:54.141Z,12.30
2023-04-12T02:35:57.550Z,11.40
2023-04-12T02:40:59.151Z,9.90
2023-04-12T02:46:01.179Z,11.50
2023-04-12T02:51:02.758Z,11.70
2023-04-12T02:56:08.418Z,11.70
2023-04-12T03:01:13.505Z,14.00
2023-04-12T03:06:15.030Z,12.20
2023-04-12T03:11:17.209Z,11.80
2023-04-12T03:16:23.907Z,13.00
2023-04-12T03:21:26.025Z,12.10
2023-04-12T03:26:27.863Z,15.40
2023-04-12T03:31:29.700Z,16.80
2023-04-12T03:36:31.694Z,16.70
2023-04-12T03:41:33.835Z,18.60
2023-04-12T03:46:35.634Z,22.50
2023-04-12T03:51:42.838Z,20.50
2023-04-12T03:56:46.050Z,20.70
2023-04-12T04:01:48.261Z,22.10
2023-04-12T04:06:49.931Z,22.90
2023-04-12T04:11:51.756Z,23.60
2023-04-12T04:16:54.148Z,24.20
2023-04-12T04:21:56.348Z,21.00
2023-04-12T04:26:58.886Z,21.10
2023-04-12T04:32:00.524Z,21.60
2023-04-12T04:37:02.216Z,19.70
2023-04-12T04:42:06.790Z,19.90
2023-04-12T04:47:08.796Z,17.90
2023-04-12T04:52:11.030Z,17.40
2023-04-12T04:57:12.953Z,21.50
2023-04-12T05:02:14.607Z,19.70
2023-04-12T05:07:16.184Z,20.70
2023-04-12T05:12:17.658Z,22.50
2023-04-12T05:17:19.171Z,21.60
2023-04-12T05:22:22.210Z,23.60
2023-04-12T05:27:23.906Z,19.50
2023-04-12T05:32:26.077Z,22.70
2023-04-12T05:37:28.613Z,22.80
2023-04-12T05:42:30.187Z,21.10
2023-04-12T05:47:31.788Z,19.60
2023-04-12T05:52:33.394Z,21.30
2023-04-12T05:57:35.423Z,24.60
2023-04-12T06:02:37.900Z,20.00
2023-04-12T06:07:42.266Z,23.50
2023-04-12T06:12:44.194Z,24.50
2023-04-12T06:17:45.962Z,25.00
2023-04-12T06:22:47.499Z,22.70
2023-04-12T06:27:49.021Z,26.50
2023-04-12T06:32:50.835Z,25.20
2023-04-12T06:37:52.447Z,25.40
2023-04-12T06:42:54.064Z,19.10
2023-04-12T06:47:57.652Z,22.30
2023-04-12T06:52:59.724Z,27.20
2023-04-12T06:58:01.593Z,23.20
2023-04-12T07:03:03.430Z,21.60
2023-04-12T07:08:05.685Z,23.70
2023-04-12T07:13:08.341Z,23.50
2023-04-12T07:18:10.070Z,24.50
2023-04-12T07:23:11.681Z,25.80
2023-04-12T07:28:13.624Z,24.40
2023-04-12T07:33:19.572Z,21.30
2023-04-12T07:38:21.999Z,27.90
2023-04-12T07:43:24.243Z,22.50
2023-04-12T07:48:25.800Z,23.30
2023-04-12T07:53:29.013Z,26.50
2023-04-12T07:58:31.044Z,25.20
2023-04-12T08:03:32.824Z,23.70
2023-04-12T08:08:34.504Z,22.30
2023-04-12T08:13:36.352Z,23.70
2023-04-12T08:18:37.918Z,20.70
2023-04-12T08:23:39.471Z,19.90
2023-04-12T08:28:40.953Z,19.40
2023-04-12T08:33:42.486Z,18.60
2023-04-12T08:38:46.155Z,17.10
2023-04-12T08:43:48.856Z,17.30
2023-04-12T08:48:57.205Z,15.90
2023-04-12T08:53:59.689Z,20.30
2023-04-12T08:59:02.860Z,18.80
2023-04-12T09:04:08.184Z,19.10
2023-04-12T09:09:11.653Z,21.80
2023-04-12T09:14:24.892Z,18.80
2023-04-12T09:19:35.739Z,17.40
2023-04-12T09:24:53.248Z,18.20
2023-04-12T09:30:10.605Z,20.90
2023-04-12T09:35:12.676Z,17.20
2023-04-12T09:40:14.492Z,17.20
2023-04-12T09:45:25.467Z,16.60
2023-04-12T09:50:29.239Z,17.40
2023-04-12T09:55:32.685Z,17.00
2023-04-12T10:00:36.936Z,17.20
2023-04-12T10:05:40.748Z,16.90
2023-04-12T10:10:45.902Z,17.70
2023-04-12T10:15:50.989Z,16.10
2023-04-12T10:20:52.979Z,14.70
2023-04-12T10:25:57.097Z,15.50
2023-04-12T10:30:58.825Z,13.40
2023-04-12T10:36:08.678Z,13.20
2023-04-12T10:41:16.399Z,13.00
2023-04-12T10:46:40.195Z,13.30
2023-04-12T10:52:04.311Z,15.40
2023-04-12T10:57:07.058Z,14.60
2023-04-12T11:02:12.025Z,13.30
2023-04-12T11:07:14.088Z,12.20
2023-04-12T11:12:16.812Z,12.80
2023-04-12T11:17:18.305Z,11.70
2023-04-12T11:22:22.632Z,11.80
2023-04-12T11:27:25.828Z,13.60
2023-04-12T11:32:30.201Z,12.10
2023-04-12T11:37:32.246Z,13.30
2023-04-12T11:42:34.153Z,10.70
2023-04-12T11:47:36.068Z,11.10
2023-04-12T11:52:37.797Z,12.20
2023-04-12T11:57:39.646Z,11.60
2023-04-12T12:02:49.434Z,11.60
2023-04-12T12:08:08.062Z,9.40
2023-04-12T12:13:13.049Z,9.90
2023-04-12T12:18:14.683Z,9.90
2023-04-12T12:23:32.294Z,10.30
2023-04-12T12:28:40.818Z,10.30
2023-04-12T12:33:46.990Z,10.30
2023-04-12T12:38:53.243Z,11.30
2023-04-12T12:43:54.827Z,11.00
2023-04-12T12:48:56.605Z,9.80
2023-04-12T12:53:58.412Z,10.20
2023-04-12T12:59:00.450Z,8.20
2023-04-12T13:04:02.371Z,10.80
2023-04-12T13:09:04.328Z,9.00
2023-04-12T13:14:05.890Z,9.30
2023-04-12T13:19:07.555Z,9.10
2023-04-12T13:24:09.562Z,8.90
2023-04-12T13:29:11.195Z,9.60
2023-04-12T13:34:12.694Z,9.50
2023-04-12T13:39:14.203Z,8.90
2023-04-12T13:44:16.020Z,9.70
2023-04-12T13:49:17.539Z,10.60
2023-04-12T13:54:19.313Z,10.30
2023-04-12T13:59:20.820Z,9.30
2023-04-12T14:04:22.896Z,10.70
2023-04-12T14:09:27.222Z,10.90
2023-04-12T14:14:28.752Z,9.90
2023-04-12T14:19:30.380Z,11.70
2023-04-12T14:24:32.036Z,11.00
2023-04-12T14:29:33.976Z,11.20
2023-04-12T14:34:38.005Z,11.40
2023-04-12T14:39:39.506Z,10.30
2023-04-12T14:44:41.301Z,13.00
2023-04-12T14:49:43.004Z,12.50
2023-04-12T14:54:45.011Z,12.70
2023-04-12T14:59:46.603Z,10.70
2023-04-12T15:04:51.789Z,10.80
2023-04-12T15:09:53.823Z,10.00
2023-04-12T15:14:57.976Z,10.20
2023-04-12T15:20:00.329Z,10.20
2023-04-12T15:25:02.944Z,11.00
2023-04-12T15:30:08.418Z,11.10
2023-04-12T15:35:25.250Z,11.40
2023-04-12T15:40:27.878Z,10.90
2023-04-12T15:45:29.588Z,13.40
2023-04-12T15:50:31.135Z,15.50
2023-04-12T15:55:33.417Z,15.10
2023-04-12T16:00:34.929Z,17.30
2023-04-12T16:05:36.836Z,17.40
2023-04-12T16:10:39.492Z,16.80
2023-04-12T16:15:41.806Z,18.70
2023-04-12T16:20:44.099Z,17.60
2023-04-12T16:25:46.184Z,15.70
2023-04-12T16:30:49.994Z,18.40
2023-04-12T16:35:51.602Z,18.00
2023-04-12T16:40:54.000Z,20.50
2023-04-12T16:45:56.817Z,17.00
2023-04-12T16:51:02.065Z,18.00
2023-04-12T16:56:04.665Z,20.10
2023-04-12T17:01:07.726Z,17.90
2023-04-12T17:06:09.532Z,17.40
2023-04-12T17:11:11.946Z,17.40
2023-04-12T17:16:16.215Z,25.60
2023-04-12T17:21:17.956Z,25.30
2023-04-12T17:26:25.097Z,23.80
2023-04-12T17:31:27.767Z,24.30
2023-04-12T17:36:31.582Z,23.90
2023-04-12T17:41:33.098Z,18.20
2023-04-12T17:46:35.602Z,17.20
2023-04-12T17:51:37.121Z,20.80
2023-04-12T17:56:38.680Z,22.40
2023-04-12T18:01:40.228Z,22.70
2023-04-12T18:06:42.219Z,20.30
2023-04-12T18:11:43.802Z,25.90
2023-04-12T18:16:45.524Z,29.00
2023-04-12T18:21:49.640Z,40.80
2023-04-12T18:26:51.161Z,37.50
2023-04-12T18:31:52.893Z,26.80
2023-04-12T18:36:54.971Z,23.00
2023-04-12T18:41:57.377Z,22.90
2023-04-12T18:46:59.051Z,25.10
2023-04-12T18:52:01.083Z,34.30
2023-04-12T18:57:03.576Z,33.40
2023-04-12T19:02:05.679Z,35.70
2023-04-12T19:07:08.267Z,34.70
2023-04-12T19:12:09.896Z,32.10
2023-04-12T19:17:11.410Z,32.10
2023-04-12T19:22:12.948Z,29.30
2023-04-12T19:27:14.447Z,20.80
2023-04-12T19:32:16.374Z,17.70
2023-04-12T19:37:17.940Z,20.50
2023-04-12T19:42:20.042Z,16.80
2023-04-12T19:47:22.235Z,16.80
2023-04-12T19:52:24.309Z,17.50
2023-04-12T19:57:27.750Z,20.60
2023-04-12T20:02:30.119Z,20.60
2023-04-12T20:07:32.322Z,19.30
2023-04-12T20:12:34.051Z,19.90
2023-04-12T20:17:36.596Z,21.40
2023-04-12T20:22:45.088Z,28.60
2023-04-12T20:27:52.519Z,31.90
2023-04-12T20:32:55.060Z,32.50
2023-04-12T20:37:56.860Z,29.30
2023-04-12T20:42:59.929Z,32.20
2023-04-12T20:48:01.595Z,28.50
2023-04-12T20:53:03.472Z,25.50
2023-04-12T20:58:07.604Z,29.30
2023-04-12T21:03:12.790Z,27.00
2023-04-12T21:08:14.383Z,27.90
2023-04-12T21:13:16.490Z,22.50
2023-04-12T21:18:20.338Z,26.20
2023-04-12T21:23:23.874Z,26.60
2023-04-12T21:28:25.533Z,32.60
2023-04-12T21:33:27.116Z,60.60
2023-04-12T21:38:28.714Z,56.70
2023-04-12T21:43:31.091Z,65.50
2023-04-12T21:48:32.694Z,158.10
2023-04-12T21:53:34.402Z,87.20
2023-04-12T21:58:36.694Z,46.40
2023-04-12T22:03:41.947Z,47.30
2023-04-12T22:08:48.957Z,65.60
2023-04-12T22:13:53.573Z,57.80
2023-04-12T22:24:24.507Z,55.10
2023-04-12T22:29:26.320Z,54.00
2023-04-12T22:34:28.903Z,59.20
2023-04-12T22:39:32.196Z,54.60
2023-04-12T22:44:38.279Z,54.20
2023-04-12T22:49:50.508Z,58.70
2023-04-12T22:54:52.227Z,45.60
2023-04-12T22:59:54.203Z,48.60
2023-04-12T23:04:55.833Z,43.00
2023-04-12T23:09:57.925Z,47.70
2023-04-12T23:14:59.427Z,43.10
2023-04-12T23:20:01.994Z,45.90
2023-04-12T23:25:05.441Z,46.40
2023-04-12T23:30:07.967Z,43.70
2023-04-12T23:35:10.154Z,43.00
2023-04-12T23:40:14.906Z,45.30
2023-04-12T23:45:17.107Z,48.70
2023-04-12T23:50:18.942Z,45.20
2023-04-12T23:55:20.495Z,42.90
